EHBK

Maastricht Aachen Airport

Maastricht, The Netherlands
METAR EHBK 191855Z AUTO 25005KT 220V300 9999 NSC 21/12 Q1018 NOSIG
Observed Flight Rules
Sep-19 @ 18:55 UTC (34 minutes ago) Visual Flight Rules
Wind Visibility Clouds
250° at 5 knots 10,000+ meters
  • Clear skies
Temperatures Readings
Current 21°C / 70°F
Dewpoint 12°C / 54°F
Humidity 57%
Altimeter 30.06" Hg
Pressure 1018 hPa
Elevation 116
METAR EHBK 191855Z AUTO 25005KT 220V300 9999 NSC 21/12 Q1018 NOSIG
Observed Flight Rules
Sep-19 @ 18:55 UTC
(34 minutes ago)
VFR
Wind Visibility
250° at 5 knots 10,000+ meters
Clouds
  • Clear skies
Temperature Dewpoint
21°C / 70°F 12°C / 54°F
Humidity Altimeter Pressure
57% 30.06" Hg 1018 hPa